Airfield :
LOGIN :

Register | Disclaimer

   EN    FR    IT 

 










Legend :    VFR   Marginal VFR   IFR   Intensive IFR   Very Intensive IFR
Visi :
Ceiling :
>= 8 km
>= 3000ft
5 to 8 km
1000 to 3000 ft
1500m to 5 km
500 to 1000 ft
800 to 1500m
200 to 500 ft
< 800m
< 200 ft
Symbols :   Thunderstorms  Fog  Heavy snow  Heavy precipitations  Wind > 20 kt
SIGMETs :     Misc.  Thunderstorms  Icing  Turbulence  Mountain Waves  Volcanic Ashes






- Airport Elevation : 909 ft
- IATA code : KSF


EDVK - Kassel Calden

CURRENT METAR :
  • 221250Z 13008KT 8000 FEW006 BKN010 05/03 Q1008

EXPIRED METARs :
  • 221220Z 14008KT 8000 SCT007 BKN009 05/03 Q1008
  • 221150Z 14007KT 7000 BKN008 05/03 Q1008
  • 221120Z 13006KT 100V160 7000 SCT006 OVC008 04/03 Q1008
  • 221050Z 14008KT 5000 BR SCT005 OVC007 04/03 Q1008
  • 221020Z 13006KT 5000 BR SCT005 OVC007 03/02 Q1009

TAF TAF EDVK
Valid from the 22 at 12:00 until the 22 at 21:00 UTC


221100Z 2212/2221 13007KT 4500 BR OVC007
TEMPO 2218/2221 0800 FG BKN002



MET'MAP, your aeronautical weather chart ! - Copyright ORBIFLY December 2007 - Disclaimer

ORBIFLY MET'MAP TEAM :

Programming & Development : Alexandra Zaïnal
Concept & Development : Baudouin d'Aumeries
Co-Development & Prog : Marc-Olivier Méhu
Technical & hardware support : Manuel Goepfert

Contact : metmap@orbifly.com




SOURCES & CREDITS :

   NOAA